Time;durP1;ratioP1;P1;durP2;ratioP2;P2;SDS_P1;SDS_P2;PMS_P1;PMS_P2;Temp;Humidity;BMP_temperature;BMP_pressure;BME280_temperature;BME280_humidity;BME280_pressure;Samples;Min_cycle;Max_cycle;Signal;HPM_P1;HPM_P2
2023/10/30 00:01:03;;;;;;;8.43;1.77;;;11.70;99.90;;;;;;5030021;28;20375;-89
2023/10/30 00:03:29;;;;;;;7.35;1.35;;;11.70;99.90;;;;;;5020850;28;20075;-88
2023/10/30 00:05:55;;;;;;;9.45;1.98;;;11.70;99.90;;;;;;5028371;28;20472;-86
2023/10/30 00:08:22;;;;;;;7.18;1.30;;;11.70;99.90;;;;;;5012461;28;20037;-86
2023/10/30 00:10:48;;;;;;;10.93;1.77;;;11.70;99.90;;;;;;5026684;28;20033;-93
2023/10/30 00:13:13;;;;;;;8.85;1.50;;;11.70;99.90;;;;;;5011755;28;20029;-90
2023/10/30 00:15:39;;;;;;;4.18;0.95;;;11.70;99.90;;;;;;5026977;28;20025;-86
2023/10/30 00:18:04;;;;;;;11.25;1.27;;;11.70;99.90;;;;;;5022950;28;20026;-88
2023/10/30 00:20:30;;;;;;;15.52;2.22;;;11.70;99.90;;;;;;5030926;28;20059;-87
2023/10/30 00:22:56;;;;;;;7.00;1.73;;;11.70;99.90;;;;;;5023188;28;20470;-91
2023/10/30 00:25:21;;;;;;;10.15;1.65;;;11.80;99.90;;;;;;5026781;28;20025;-90
2023/10/30 00:27:47;;;;;;;6.80;1.63;;;11.70;99.90;;;;;;5028086;28;20033;-84
2023/10/30 00:30:13;;;;;;;4.72;1.20;;;11.70;99.90;;;;;;5028761;28;20044;-87
2023/10/30 00:32:39;;;;;;;2.33;0.90;;;11.80;99.90;;;;;;5028633;28;20489;-87
2023/10/30 00:35:05;;;;;;;6.82;1.52;;;11.70;99.90;;;;;;5029414;28;20087;-86
2023/10/30 00:37:34;;;;;;;19.30;1.90;;;11.70;99.90;;;;;;5022647;28;20041;-91
2023/10/30 00:39:59;;;;;;;17.27;2.22;;;11.70;99.90;;;;;;5029902;28;20146;-88
2023/10/30 00:42:27;;;;;;;13.20;1.70;;;11.70;99.90;;;;;;5029133;28;20025;-88
2023/10/30 00:44:53;;;;;;;3.72;1.20;;;11.70;99.90;;;;;;5028815;28;20565;-88
2023/10/30 00:47:18;;;;;;;6.60;1.25;;;11.80;99.90;;;;;;5028447;28;20025;-89
2023/10/30 00:49:44;;;;;;;9.27;1.95;;;11.70;99.90;;;;;;5028039;28;20091;-83
2023/10/30 00:52:09;;;;;;;4.88;1.70;;;11.80;99.90;;;;;;5027139;28;20033;-87
2023/10/30 00:54:35;;;;;;;7.22;1.33;;;11.80;99.90;;;;;;5028703;28;20036;-87
2023/10/30 00:57:01;;;;;;;4.60;1.10;;;11.80;99.90;;;;;;5019919;28;20036;-83
2023/10/30 00:59:26;;;;;;;16.17;1.85;;;11.80;99.90;;;;;;5026286;28;20083;-86
2023/10/30 01:01:52;;;;;;;7.40;1.33;;;11.80;99.90;;;;;;5026749;28;20026;-90
2023/10/30 01:04:17;;;;;;;7.00;1.35;;;11.80;99.90;;;;;;5028551;28;20072;-80
2023/10/30 01:06:43;;;;;;;7.55;2.25;;;11.70;99.90;;;;;;5027517;28;20026;-88
2023/10/30 01:09:09;;;;;;;7.63;1.33;;;11.70;99.90;;;;;;5027847;28;20041;-88
2023/10/30 01:11:34;;;;;;;10.10;1.60;;;11.70;99.90;;;;;;5027216;28;20030;-92
2023/10/30 01:14:00;;;;;;;2.63;0.95;;;11.70;99.90;;;;;;5018866;28;20026;-86
2023/10/30 01:16:25;;;;;;;3.90;1.02;;;11.70;99.90;;;;;;5022238;28;20490;-90
2023/10/30 01:18:51;;;;;;;5.68;1.98;;;11.70;99.90;;;;;;5027961;28;20481;-84
2023/10/30 01:21:17;;;;;;;10.80;1.20;;;11.70;99.90;;;;;;5025875;28;20043;-85
2023/10/30 01:23:42;;;;;;;7.60;1.55;;;11.70;99.90;;;;;;5026883;28;20026;-88
2023/10/30 01:26:08;;;;;;;8.32;1.48;;;11.70;99.90;;;;;;5027271;28;20040;-92
2023/10/30 01:28:33;;;;;;;10.18;1.50;;;11.70;99.90;;;;;;5024626;28;20030;-86
2023/10/30 01:30:59;;;;;;;9.07;1.58;;;11.60;99.90;;;;;;5027392;28;20052;-87
2023/10/30 01:33:25;;;;;;;11.45;2.10;;;11.70;99.90;;;;;;5025957;28;20034;-90
2023/10/30 01:35:50;;;;;;;11.68;2.50;;;11.70;99.90;;;;;;5024935;28;20037;-92
2023/10/30 01:38:16;;;;;;;7.38;1.50;;;11.80;99.90;;;;;;5026899;28;20083;-88
2023/10/30 01:40:49;;;;;;;9.73;1.40;;;11.80;99.90;;;;;;5023253;28;20029;-87
2023/10/30 01:43:15;;;;;;;7.10;1.50;;;11.80;99.90;;;;;;5022714;28;20039;-88
2023/10/30 01:45:41;;;;;;;5.55;1.55;;;11.70;99.90;;;;;;5023925;28;20038;-93
2023/10/30 01:48:08;;;;;;;7.20;1.60;;;11.70;99.90;;;;;;5027233;28;20040;-89
2023/10/30 01:50:36;;;;;;;8.98;1.60;;;11.80;99.90;;;;;;5022585;28;20517;-90
2023/10/30 01:53:03;;;;;;;5.80;1.63;;;11.80;99.90;;;;;;5027366;28;20037;-87
2023/10/30 01:55:29;;;;;;;14.15;1.88;;;11.80;99.90;;;;;;5023949;28;20055;-87
2023/10/30 01:57:55;;;;;;;6.68;2.00;;;11.80;99.90;;;;;;5028230;28;20553;-89
2023/10/30 02:00:21;;;;;;;8.27;1.50;;;11.80;99.90;;;;;;5026564;28;20474;-87
2023/10/30 02:02:50;;;;;;;14.25;2.15;;;11.80;99.90;;;;;;5022968;28;20038;-86
2023/10/30 02:05:16;;;;;;;5.65;1.33;;;11.80;99.90;;;;;;5023715;28;20216;-86
2023/10/30 02:07:42;;;;;;;8.65;1.88;;;11.80;99.90;;;;;;5025598;28;20040;-88
2023/10/30 02:10:08;;;;;;;6.38;1.35;;;11.80;99.90;;;;;;5025635;28;20025;-88
2023/10/30 02:12:35;;;;;;;11.00;1.60;;;11.80;99.90;;;;;;5023527;28;20029;-87
2023/10/30 02:15:00;;;;;;;7.70;1.73;;;11.80;99.90;;;;;;5027112;28;20493;-88
2023/10/30 02:17:26;;;;;;;3.63;1.30;;;11.80;99.90;;;;;;5021478;28;20116;-87
2023/10/30 02:19:53;;;;;;;6.53;2.50;;;11.80;99.90;;;;;;5027833;28;20037;-90
2023/10/30 02:22:18;;;;;;;19.73;3.53;;;11.80;99.90;;;;;;5027979;28;20036;-87
2023/10/30 02:24:44;;;;;;;8.18;1.90;;;11.70;99.90;;;;;;5026956;28;20037;-89
2023/10/30 02:27:10;;;;;;;7.55;1.80;;;11.70;99.90;;;;;;5024958;28;20029;-94
2023/10/30 02:29:36;;;;;;;10.95;2.00;;;11.70;99.90;;;;;;5024166;28;20109;-88
2023/10/30 02:32:02;;;;;;;11.05;1.73;;;11.70;99.90;;;;;;5024109;28;20037;-86
2023/10/30 02:34:27;;;;;;;7.38;1.50;;;11.70;99.90;;;;;;5009328;28;20030;-87
2023/10/30 02:36:54;;;;;;;15.00;1.73;;;11.70;99.90;;;;;;5023090;28;20418;-88
2023/10/30 02:39:20;;;;;;;10.75;1.73;;;11.80;99.90;;;;;;5005845;28;20073;-87
2023/10/30 02:41:46;;;;;;;8.55;1.88;;;11.70;99.90;;;;;;5024941;28;20065;-89
2023/10/30 02:44:14;;;;;;;8.02;1.30;;;11.70;99.90;;;;;;5016040;28;20030;-91
2023/10/30 02:46:40;;;;;;;10.38;1.88;;;11.70;99.90;;;;;;5015793;28;20034;-88
2023/10/30 02:49:06;;;;;;;10.68;2.00;;;11.70;99.90;;;;;;5021190;28;20025;-89
2023/10/30 02:51:32;;;;;;;11.02;1.90;;;11.70;99.90;;;;;;5018331;28;20552;-88
2023/10/30 02:53:57;;;;;;;13.57;2.53;;;11.70;99.90;;;;;;5023821;28;20033;-88
2023/10/30 02:56:23;;;;;;;10.95;1.60;;;11.70;99.90;;;;;;5027574;28;20033;-90
2023/10/30 02:58:49;;;;;;;11.00;1.88;;;11.70;99.90;;;;;;5020551;28;20041;-90
2023/10/30 03:01:14;;;;;;;12.70;1.73;;;11.70;99.90;;;;;;5026594;28;20545;-89
2023/10/30 03:03:40;;;;;;;10.65;1.70;;;11.70;99.90;;;;;;5024467;28;20049;-89
2023/10/30 03:06:05;;;;;;;12.35;2.40;;;11.80;99.90;;;;;;5026058;28;20026;-87
2023/10/30 03:08:31;;;;;;;17.83;2.42;;;11.80;99.90;;;;;;5021563;28;20285;-92
2023/10/30 03:10:56;;;;;;;8.23;1.70;;;11.70;99.90;;;;;;5024761;28;20030;-88
2023/10/30 03:13:23;;;;;;;11.95;1.95;;;11.70;99.90;;;;;;5025090;28;20022;-86
2023/10/30 03:15:48;;;;;;;6.28;1.63;;;11.70;99.90;;;;;;5026400;28;20394;-88
2023/10/30 03:18:14;;;;;;;6.57;1.85;;;11.60;99.90;;;;;;5025825;28;20140;-87
2023/10/30 03:20:40;;;;;;;10.77;1.73;;;11.60;99.90;;;;;;5022496;28;20057;-93
2023/10/30 03:23:05;;;;;;;8.85;1.75;;;11.60;99.90;;;;;;5026716;28;20033;-88
2023/10/30 03:25:31;;;;;;;8.23;1.83;;;11.60;99.90;;;;;;5022437;28;20071;-89
2023/10/30 03:27:57;;;;;;;10.32;2.10;;;11.60;99.90;;;;;;5026309;28;20022;-88
2023/10/30 03:30:22;;;;;;;11.63;2.10;;;11.60;99.90;;;;;;5024341;28;20495;-87
2023/10/30 03:32:48;;;;;;;12.82;2.78;;;11.60;99.90;;;;;;5025677;28;20223;-88
2023/10/30 03:35:14;;;;;;;13.25;2.90;;;11.50;99.90;;;;;;5028517;28;20032;-88
2023/10/30 03:37:39;;;;;;;13.82;2.25;;;11.60;99.90;;;;;;5020573;28;20028;-88
2023/10/30 03:40:06;;;;;;;15.82;2.80;;;11.60;99.90;;;;;;5029331;28;20048;-87
2023/10/30 03:42:34;;;;;;;6.60;1.80;;;11.60;99.90;;;;;;5029722;28;20029;-91
2023/10/30 03:45:00;;;;;;;13.15;2.72;;;11.50;99.90;;;;;;5028911;28;20529;-89
2023/10/30 03:47:26;;;;;;;8.07;1.80;;;11.50;99.90;;;;;;5030521;28;20033;-87
2023/10/30 03:49:51;;;;;;;10.02;1.98;;;11.50;99.90;;;;;;5027923;28;20112;-87
2023/10/30 03:52:17;;;;;;;16.58;2.03;;;11.50;99.90;;;;;;5029755;28;20021;-89
2023/10/30 03:54:42;;;;;;;9.57;1.38;;;11.60;99.90;;;;;;5027501;28;20470;-89
2023/10/30 03:57:08;;;;;;;9.00;1.92;;;11.60;99.90;;;;;;5026524;28;20312;-89
2023/10/30 03:59:34;;;;;;;14.43;2.25;;;11.60;99.90;;;;;;5017899;28;20042;-89
2023/10/30 04:02:00;;;;;;;8.60;1.88;;;11.60;99.90;;;;;;5027594;28;20478;-89
2023/10/30 04:04:25;;;;;;;11.48;1.67;;;11.60;99.90;;;;;;5029841;28;20501;-89
2023/10/30 04:06:51;;;;;;;8.70;2.38;;;11.60;99.90;;;;;;5019295;28;20022;-91
2023/10/30 04:09:16;;;;;;;9.63;2.20;;;11.50;99.90;;;;;;5027550;28;20455;-86
2023/10/30 04:11:48;;;;;;;13.18;2.83;;;11.50;99.90;;;;;;5028984;28;20037;-88
2023/10/30 04:14:14;;;;;;;12.85;1.67;;;11.50;99.90;;;;;;5028420;28;20032;-87
2023/10/30 04:16:39;;;;;;;6.13;1.45;;;11.50;99.90;;;;;;5029149;28;20334;-87
2023/10/30 04:19:05;;;;;;;8.40;1.83;;;11.40;99.90;;;;;;5028884;28;20561;-87
2023/10/30 04:21:31;;;;;;;10.32;1.83;;;11.40;99.90;;;;;;5028358;28;20120;-86
2023/10/30 04:23:57;;;;;;;11.10;1.95;;;11.40;99.90;;;;;;5017575;28;20075;-91
2023/10/30 04:26:23;;;;;;;6.68;1.45;;;11.30;99.90;;;;;;5026802;28;20120;-86
2023/10/30 04:28:49;;;;;;;7.93;1.80;;;11.30;99.90;;;;;;5028640;28;20116;-86
2023/10/30 04:31:15;;;;;;;9.70;1.90;;;11.30;99.90;;;;;;5026376;28;20083;-88
2023/10/30 04:33:40;;;;;;;12.93;1.90;;;11.30;99.90;;;;;;5026302;28;20022;-88
2023/10/30 04:36:06;;;;;;;5.32;1.60;;;11.20;99.90;;;;;;5025464;28;20030;-87
2023/10/30 04:38:34;;;;;;;12.15;1.70;;;11.20;99.90;;;;;;5024920;28;20293;-88
2023/10/30 04:41:04;;;;;;;8.15;1.27;;;11.20;99.90;;;;;;5025981;28;20103;-84
2023/10/30 04:43:33;;;;;;;10.38;1.75;;;11.20;99.90;;;;;;5027305;28;20114;-88
2023/10/30 04:45:59;;;;;;;10.02;2.03;;;11.20;99.90;;;;;;5024260;28;20079;-87
2023/10/30 04:48:25;;;;;;;9.63;2.08;;;11.20;99.90;;;;;;5027749;28;20091;-86
2023/10/30 04:50:50;;;;;;;8.82;1.88;;;11.20;99.90;;;;;;5022035;28;20026;-87
2023/10/30 04:53:16;;;;;;;16.17;3.28;;;11.20;99.90;;;;;;5029431;28;20026;-86
2023/10/30 04:55:42;;;;;;;10.70;1.95;;;11.20;99.90;;;;;;5017598;28;20042;-90
2023/10/30 04:58:07;;;;;;;6.70;1.67;;;11.20;99.90;;;;;;5021768;28;20033;-86
2023/10/30 05:00:35;;;;;;;4.90;1.60;;;11.20;99.90;;;;;;5019094;28;20100;-88
2023/10/30 05:03:01;;;;;;;8.52;1.60;;;11.30;99.90;;;;;;5025958;28;20045;-87
2023/10/30 05:05:26;;;;;;;12.27;2.22;;;11.20;99.90;;;;;;5028998;28;20040;-88
2023/10/30 05:07:52;;;;;;;6.07;1.55;;;11.20;99.90;;;;;;5027915;28;20062;-87
2023/10/30 05:10:18;;;;;;;9.57;1.80;;;11.20;99.90;;;;;;5028573;28;20054;-87
2023/10/30 05:12:43;;;;;;;7.63;2.03;;;11.20;99.90;;;;;;5026951;28;20081;-87
2023/10/30 05:15:09;;;;;;;9.98;2.25;;;11.20;99.90;;;;;;5026656;28;20529;-87
2023/10/30 05:17:39;;;;;;;16.30;1.95;;;11.30;99.90;;;;;;5021706;28;20029;-87
2023/10/30 05:20:05;;;;;;;9.25;2.13;;;11.40;99.90;;;;;;5025720;28;20038;-87
2023/10/30 05:22:33;;;;;;;15.88;2.13;;;11.50;99.90;;;;;;5027075;28;20022;-90
2023/10/30 05:24:59;;;;;;;14.50;2.03;;;11.50;99.90;;;;;;5028436;28;20095;-88
2023/10/30 05:27:27;;;;;;;10.73;2.80;;;11.50;99.90;;;;;;5027394;28;20463;-88
2023/10/30 05:29:53;;;;;;;15.70;2.33;;;11.50;99.90;;;;;;5027940;28;20040;-86
2023/10/30 05:32:19;;;;;;;19.90;2.85;;;11.50;99.90;;;;;;5025355;28;20398;-88
2023/10/30 05:34:46;;;;;;;11.10;2.00;;;11.60;99.90;;;;;;5025303;28;20036;-90
2023/10/30 05:37:12;;;;;;;12.02;2.15;;;11.60;99.90;;;;;;5022243;28;20026;-89
2023/10/30 05:39:38;;;;;;;12.57;2.17;;;11.70;99.90;;;;;;5020351;28;20500;-89
2023/10/30 05:42:04;;;;;;;16.88;2.42;;;11.60;99.90;;;;;;5022411;28;20021;-88
2023/10/30 05:44:30;;;;;;;10.77;2.13;;;11.70;99.90;;;;;;5023079;28;20254;-89
2023/10/30 05:46:59;;;;;;;17.45;2.20;;;11.70;99.90;;;;;;5016632;28;20044;-89
2023/10/30 05:49:26;;;;;;;16.05;3.38;;;11.70;99.90;;;;;;5023968;28;20040;-88
2023/10/30 05:51:52;;;;;;;12.10;2.00;;;11.60;99.90;;;;;;5023549;28;20100;-87
2023/10/30 05:54:18;;;;;;;9.63;1.88;;;11.70;99.90;;;;;;5026820;28;20037;-89
2023/10/30 05:56:43;;;;;;;19.58;2.65;;;11.70;99.90;;;;;;5026075;28;20030;-86
2023/10/30 05:59:09;;;;;;;7.65;1.92;;;11.70;99.90;;;;;;5028141;28;20045;-89
2023/10/30 06:01:35;;;;;;;13.63;2.50;;;11.70;99.90;;;;;;5026148;28;20037;-88
2023/10/30 06:04:00;;;;;;;13.15;2.03;;;11.60;99.90;;;;;;5028087;28;20053;-88
2023/10/30 06:06:26;;;;;;;8.40;1.95;;;11.60;99.90;;;;;;5019659;28;20088;-89
2023/10/30 06:08:52;;;;;;;11.05;2.03;;;11.60;99.90;;;;;;5028690;28;20446;-89
2023/10/30 06:11:17;;;;;;;18.17;2.85;;;11.70;99.90;;;;;;5028142;28;20411;-89
2023/10/30 06:13:43;;;;;;;10.55;1.92;;;11.70;99.90;;;;;;5024229;28;20025;-89
2023/10/30 06:16:16;;;;;;;12.65;2.20;;;11.70;99.90;;;;;;5028525;28;20469;-90
2023/10/30 06:18:41;;;;;;;14.68;3.03;;;11.60;99.90;;;;;;5017402;28;20041;-90
2023/10/30 06:21:07;;;;;;;17.50;2.53;;;11.60;99.90;;;;;;5027313;28;20033;-90
2023/10/30 06:23:37;;;;;;;8.02;1.63;;;11.70;99.90;;;;;;5026934;28;20440;-88
2023/10/30 06:26:11;;;;;;;17.98;3.13;;;11.60;99.90;;;;;;5032130;28;20029;-90
2023/10/30 06:28:40;;;;;;;14.32;2.65;;;11.60;99.90;;;;;;5024452;28;20060;-91
2023/10/30 06:31:15;;;;;;;12.98;1.77;;;11.60;99.90;;;;;;5017336;28;20033;-88
2023/10/30 06:33:42;;;;;;;13.13;2.60;;;11.70;99.90;;;;;;5021153;28;20076;-91
2023/10/30 06:36:08;;;;;;;8.88;2.08;;;11.70;99.90;;;;;;5014545;28;20021;-89
2023/10/30 06:38:34;;;;;;;11.85;1.70;;;11.70;99.90;;;;;;5027765;28;20041;-89
2023/10/30 06:41:00;;;;;;;14.25;2.85;;;11.70;99.90;;;;;;5024049;28;20030;-91
2023/10/30 06:43:29;;;;;;;8.40;2.10;;;11.70;99.90;;;;;;5025363;28;20113;-86
2023/10/30 06:46:08;;;;;;;12.20;2.15;;;11.80;99.90;;;;;;5027999;28;20029;-89
2023/10/30 06:48:33;;;;;;;6.15;1.75;;;11.80;99.90;;;;;;5029802;28;20155;-87
2023/10/30 06:51:02;;;;;;;3.85;1.40;;;11.80;99.90;;;;;;5018437;28;20394;-88
2023/10/30 06:53:28;;;;;;;4.90;2.08;;;11.80;99.90;;;;;;5026725;28;20044;-91
2023/10/30 06:55:54;;;;;;;10.52;1.52;;;11.70;99.90;;;;;;5024740;28;20056;-88
2023/10/30 06:58:21;;;;;;;8.82;2.13;;;11.80;99.90;;;;;;5023377;28;20034;-89
2023/10/30 07:00:50;;;;;;;6.45;1.42;;;11.70;99.90;;;;;;5021157;28;20033;-89
2023/10/30 07:03:16;;;;;;;13.40;2.30;;;11.70;99.90;;;;;;5021229;28;20045;-88
2023/10/30 07:05:44;;;;;;;6.13;1.75;;;11.70;99.90;;;;;;5026603;28;20454;-90
2023/10/30 07:08:10;;;;;;;7.45;1.88;;;11.70;99.90;;;;;;5028000;28;20586;-86
2023/10/30 07:10:38;;;;;;;8.45;2.35;;;11.70;99.90;;;;;;5028324;28;20030;-88
2023/10/30 07:13:03;;;;;;;9.00;2.72;;;11.80;99.90;;;;;;5033186;28;20036;-89
2023/10/30 07:15:29;;;;;;;8.40;1.92;;;11.70;99.90;;;;;;5030503;28;20026;-88
2023/10/30 07:17:56;;;;;;;6.45;1.77;;;11.70;99.90;;;;;;5033690;28;20474;-88
2023/10/30 07:20:21;;;;;;;24.33;2.33;;;11.70;99.90;;;;;;5025723;28;20045;-89
2023/10/30 07:22:47;;;;;;;9.30;2.05;;;11.70;99.90;;;;;;5024461;28;20030;-89
2023/10/30 07:25:12;;;;;;;13.02;2.10;;;11.70;99.90;;;;;;5027407;28;20466;-88
2023/10/30 07:27:38;;;;;;;4.60;2.17;;;11.70;99.90;;;;;;5022853;28;21815;-88
2023/10/30 07:30:04;;;;;;;7.07;1.70;;;11.70;99.90;;;;;;5022556;28;20060;-88
2023/10/30 07:32:30;;;;;;;13.10;2.15;;;11.70;99.90;;;;;;5024940;28;20029;-89
2023/10/30 07:34:56;;;;;;;8.82;1.42;;;11.70;99.90;;;;;;5028503;28;20104;-88
2023/10/30 07:37:21;;;;;;;11.77;1.88;;;11.70;99.90;;;;;;5028340;28;20501;-89
2023/10/30 07:39:47;;;;;;;10.77;2.00;;;11.70;99.90;;;;;;5024491;28;20040;-88
2023/10/30 07:42:12;;;;;;;8.80;2.33;;;11.70;99.90;;;;;;5032641;28;20029;-89
2023/10/30 07:44:38;;;;;;;7.40;1.90;;;11.70;99.90;;;;;;5026680;28;20037;-91
2023/10/30 07:47:04;;;;;;;8.27;1.80;;;11.70;99.90;;;;;;5022686;28;20064;-89
2023/10/30 07:49:30;;;;;;;9.02;2.03;;;11.70;99.90;;;;;;5024571;28;20405;-89
2023/10/30 07:51:56;;;;;;;5.00;2.03;;;11.70;99.90;;;;;;5024106;28;20100;-88
2023/10/30 07:54:22;;;;;;;9.60;1.77;;;11.70;99.90;;;;;;5029073;28;20476;-89
2023/10/30 07:56:48;;;;;;;4.82;1.67;;;11.70;99.90;;;;;;5022329;28;20029;-89
2023/10/30 07:59:16;;;;;;;10.15;2.05;;;11.60;99.90;;;;;;5025697;28;20615;-88
2023/10/30 08:01:44;;;;;;;11.43;2.17;;;11.60;99.90;;;;;;5018323;28;20051;-91
2023/10/30 08:04:09;;;;;;;8.20;2.33;;;11.60;99.90;;;;;;5018408;28;20087;-88
2023/10/30 08:06:35;;;;;;;9.95;2.30;;;11.60;99.90;;;;;;5028221;28;20110;-88
2023/10/30 08:09:01;;;;;;;11.73;2.20;;;11.70;99.90;;;;;;5026602;28;20033;-88
2023/10/30 08:11:27;;;;;;;10.85;2.15;;;11.70;99.90;;;;;;5027983;28;20427;-88
2023/10/30 08:13:53;;;;;;;8.40;1.63;;;11.70;99.90;;;;;;5029873;28;20017;-87
2023/10/30 08:16:18;;;;;;;14.45;2.25;;;11.70;99.90;;;;;;5026392;28;20483;-88
2023/10/30 08:18:44;;;;;;;10.02;2.13;;;11.70;99.90;;;;;;5026488;28;20508;-88
2023/10/30 08:21:09;;;;;;;10.45;3.00;;;11.70;99.90;;;;;;5026011;28;20112;-87
2023/10/30 08:23:36;;;;;;;7.75;2.75;;;11.70;99.90;;;;;;5029503;28;20463;-87
2023/10/30 08:26:04;;;;;;;5.82;1.90;;;11.70;99.90;;;;;;5029635;28;20421;-87
2023/10/30 08:28:30;;;;;;;18.75;2.97;;;11.70;99.90;;;;;;5028063;28;20038;-87
2023/10/30 08:30:56;;;;;;;12.73;2.42;;;11.70;99.90;;;;;;5027416;28;20095;-88
2023/10/30 08:33:22;;;;;;;4.93;1.67;;;11.80;99.90;;;;;;5019512;28;20057;-88
2023/10/30 08:35:49;;;;;;;17.67;2.55;;;11.80;99.90;;;;;;5023860;28;20100;-88
2023/10/30 08:38:14;;;;;;;14.45;2.40;;;11.80;99.90;;;;;;5028858;28;20065;-88
2023/10/30 08:40:40;;;;;;;14.77;3.33;;;11.80;99.90;;;;;;5026477;28;20028;-88
2023/10/30 08:43:06;;;;;;;12.23;2.63;;;11.80;99.90;;;;;;5026768;28;20044;-88
2023/10/30 08:45:31;;;;;;;11.75;2.58;;;11.80;99.90;;;;;;5028668;28;20037;-88
2023/10/30 08:47:57;;;;;;;14.30;2.30;;;11.90;99.90;;;;;;5027251;28;20079;-89
2023/10/30 08:50:23;;;;;;;13.60;2.00;;;11.90;99.90;;;;;;5030410;28;20022;-93
2023/10/30 08:52:49;;;;;;;11.55;2.63;;;12.00;99.90;;;;;;5024956;28;20032;-87
2023/10/30 08:55:15;;;;;;;26.17;3.08;;;12.00;99.90;;;;;;5026674;28;20493;-88
2023/10/30 08:57:40;;;;;;;8.05;2.08;;;12.10;99.90;;;;;;5026905;28;20037;-89
2023/10/30 09:00:07;;;;;;;6.32;1.88;;;12.10;99.90;;;;;;5028934;28;20030;-88
2023/10/30 09:02:33;;;;;;;9.50;1.92;;;12.10;99.90;;;;;;5025897;28;20112;-87
2023/10/30 09:04:59;;;;;;;16.00;2.75;;;12.20;99.90;;;;;;5025197;28;20037;-88
2023/10/30 09:07:24;;;;;;;10.70;2.20;;;12.20;99.90;;;;;;5022402;28;20048;-87
2023/10/30 09:09:50;;;;;;;7.70;1.52;;;12.20;99.90;;;;;;5027585;28;20036;-88
2023/10/30 09:12:17;;;;;;;13.95;1.80;;;12.20;99.90;;;;;;5024710;28;20089;-86
2023/10/30 09:14:43;;;;;;;11.73;1.67;;;12.30;99.90;;;;;;5027947;28;20032;-90
2023/10/30 09:17:09;;;;;;;10.45;2.17;;;12.40;99.90;;;;;;5017069;28;20393;-88
2023/10/30 09:19:38;;;;;;;9.77;1.92;;;12.50;99.90;;;;;;5027830;28;20482;-89
2023/10/30 09:22:04;;;;;;;10.25;1.67;;;12.60;99.90;;;;;;5028501;28;20478;-89
2023/10/30 09:24:30;;;;;;;15.45;2.25;;;12.60;99.90;;;;;;5028819;28;20033;-88
2023/10/30 09:26:55;;;;;;;17.40;2.38;;;12.60;99.90;;;;;;5027708;28;20440;-88
2023/10/30 09:29:21;;;;;;;8.40;2.03;;;12.60;99.90;;;;;;5026499;28;20348;-87
2023/10/30 09:31:49;;;;;;;10.20;1.42;;;12.70;99.90;;;;;;5022583;28;20030;-87
2023/10/30 09:34:15;;;;;;;16.38;1.73;;;12.80;99.90;;;;;;5020326;28;20036;-87
2023/10/30 09:36:41;;;;;;;4.63;1.88;;;12.90;99.90;;;;;;5017816;28;20025;-88
2023/10/30 09:39:07;;;;;;;5.35;1.20;;;12.80;99.90;;;;;;5024629;28;20087;-87
2023/10/30 09:41:43;;;;;;;6.03;1.73;;;12.80;99.90;;;;;;5021752;28;20054;-94
2023/10/30 09:44:10;;;;;;;6.30;1.35;;;12.70;99.90;;;;;;5021739;28;20041;-90
2023/10/30 09:46:41;;;;;;;7.63;1.85;;;12.70;99.90;;;;;;5023678;28;20421;-85
2023/10/30 09:49:13;;;;;;;7.05;1.48;;;12.70;99.90;;;;;;5020579;28;20022;-90
2023/10/30 09:51:42;;;;;;;8.57;1.35;;;12.70;99.90;;;;;;5022428;28;20044;-88
2023/10/30 09:54:08;;;;;;;19.77;2.50;;;12.70;99.90;;;;;;5020713;28;20025;-90
2023/10/30 09:56:34;;;;;;;14.57;1.83;;;12.80;99.90;;;;;;5023805;28;20497;-87
2023/10/30 09:59:00;;;;;;;6.63;1.42;;;12.90;99.90;;;;;;5024687;28;20132;-88
2023/10/30 10:01:26;;;;;;;4.85;1.30;;;13.00;99.90;;;;;;5023770;28;20159;-88
2023/10/30 10:03:52;;;;;;;5.60;1.38;;;13.00;99.90;;;;;;5029067;28;20046;-87
2023/10/30 10:06:18;;;;;;;12.82;1.88;;;13.00;99.90;;;;;;5024016;28;20030;-88
2023/10/30 10:08:46;;;;;;;11.25;1.55;;;13.00;99.90;;;;;;5024985;28;20033;-90
2023/10/30 10:11:15;;;;;;;8.02;1.63;;;13.10;99.90;;;;;;5026181;28;20021;-90
2023/10/30 10:13:43;;;;;;;9.43;2.00;;;13.20;99.90;;;;;;5011049;28;20461;-86
2023/10/30 10:16:10;;;;;;;10.23;1.55;;;13.30;99.90;;;;;;5022286;28;20030;-89
2023/10/30 10:18:36;;;;;;;10.15;1.58;;;13.40;99.90;;;;;;5021798;28;20113;-86
2023/10/30 10:21:11;;;;;;;5.70;1.40;;;13.50;99.90;;;;;;5021933;28;20221;-87
2023/10/30 10:23:38;;;;;;;;;;;13.50;99.90;;;;;;5022788;28;20022;-87
2023/10/30 10:26:05;;;;;;;;;;;13.50;99.90;;;;;;5024272;28;19963;-87
2023/10/30 10:28:32;;;;;;;7.97;1.38;;;13.60;99.90;;;;;;5020354;28;19913;-85
2023/10/30 10:30:58;;;;;;;11.30;2.35;;;13.70;99.90;;;;;;5023028;28;20030;-84
2023/10/30 10:33:27;;;;;;;3.42;1.08;;;13.80;99.90;;;;;;5016991;28;20029;-88
2023/10/30 10:36:03;;;;;;;7.22;1.30;;;13.80;99.90;;;;;;5004982;28;20037;-86
2023/10/30 10:38:33;;;;;;;6.22;1.63;;;13.80;99.90;;;;;;5019391;28;20104;-86
2023/10/30 10:40:59;;;;;;;5.13;1.02;;;13.80;99.90;;;;;;5017722;28;20034;-90
2023/10/30 10:43:29;;;;;;;6.75;0.88;;;13.70;99.90;;;;;;5022541;28;20041;-89
2023/10/30 10:45:56;;;;;;;6.35;1.27;;;13.70;99.90;;;;;;5001331;28;20091;-87
2023/10/30 10:48:24;;;;;;;2.13;1.00;;;13.60;99.90;;;;;;5017040;28;20125;-87
2023/10/30 10:50:50;;;;;;;4.30;1.25;;;13.60;99.90;;;;;;5017114;28;20064;-87
2023/10/30 10:53:20;;;;;;;3.80;1.08;;;13.60;99.90;;;;;;5004996;28;20057;-87
2023/10/30 10:55:48;;;;;;;9.40;1.48;;;13.70;99.90;;;;;;5021557;28;20059;-87
2023/10/30 10:58:35;;;;;;;7.07;1.17;;;13.70;99.90;;;;;;5003422;28;20386;-86
2023/10/30 11:01:05;;;;;;;5.82;0.90;;;13.70;99.90;;;;;;5022390;28;20428;-87
2023/10/30 11:03:31;;;;;;;3.92;0.80;;;13.70;99.90;;;;;;5006306;28;20053;-87
2023/10/30 11:05:58;;;;;;;3.30;0.93;;;13.80;99.90;;;;;;5023206;28;20026;-89
2023/10/30 11:08:50;;;;;;;5.15;1.35;;;13.80;99.90;;;;;;5016095;28;20063;-88
2023/10/30 11:11:30;;;;;;;4.32;0.93;;;13.80;99.90;;;;;;5011102;28;20025;-90
2023/10/30 11:14:17;;;;;;;5.25;1.13;;;13.80;99.90;;;;;;5022736;28;20022;-90
2023/10/30 11:17:05;;;;;;;5.35;1.10;;;13.70;99.90;;;;;;4992249;28;20067;-87
2023/10/30 11:19:37;;;;;;;4.28;0.90;;;13.70;99.90;;;;;;5020979;28;20366;-88
2023/10/30 11:22:03;;;;;;;11.52;1.20;;;13.80;99.90;;;;;;5013220;28;20093;-87
2023/10/30 11:24:42;;;;;;;3.28;0.98;;;13.80;99.90;;;;;;5018917;28;20044;-88
2023/10/30 11:27:27;;;;;;;2.42;1.05;;;13.80;99.90;;;;;;5022446;28;20025;-88
2023/10/30 11:30:06;;;;;;;2.97;0.98;;;13.80;99.90;;;;;;5025405;28;20063;-89
2023/10/30 11:32:49;;;;;;;8.68;1.00;;;13.80;99.90;;;;;;5021298;28;20425;-87
2023/10/30 11:35:19;;;;;;;7.82;1.45;;;13.90;99.90;;;;;;5023160;28;20144;-87
2023/10/30 11:37:45;;;;;;;3.28;0.80;;;13.80;99.90;;;;;;5018671;28;20539;-86
2023/10/30 11:40:15;;;;;;;6.25;1.13;;;13.80;99.90;;;;;;5005254;28;20064;-88
2023/10/30 11:42:43;;;;;;;6.25;1.00;;;13.80;99.90;;;;;;5024866;28;20343;-90
2023/10/30 11:45:22;;;;;;;5.88;0.93;;;13.80;99.90;;;;;;5005186;28;20040;-88
2023/10/30 11:48:05;;;;;;;4.00;1.13;;;13.80;99.90;;;;;;5018598;28;20497;-89
2023/10/30 11:50:36;;;;;;;2.50;0.80;;;13.80;99.90;;;;;;5018782;28;20025;-88
2023/10/30 11:53:14;;;;;;;7.40;1.20;;;13.70;99.90;;;;;;5020653;28;20022;-90
2023/10/30 11:55:40;;;;;;;6.50;1.10;;;13.70;99.90;;;;;;5024182;28;20053;-89
2023/10/30 11:58:09;;;;;;;5.40;1.10;;;13.80;99.90;;;;;;5020442;28;20104;-88
2023/10/30 12:00:35;;;;;;;4.00;1.05;;;13.80;99.90;;;;;;5026526;28;20041;-88
2023/10/30 12:03:00;;;;;;;6.50;1.63;;;13.80;99.90;;;;;;5009600;28;20080;-87
2023/10/30 12:05:27;;;;;;;4.22;1.40;;;13.80;99.90;;;;;;5025260;28;20524;-91
2023/10/30 12:07:52;;;;;;;5.50;1.15;;;13.90;99.90;;;;;;5021818;28;20022;-88
2023/10/30 12:10:18;;;;;;;5.60;1.02;;;14.00;99.90;;;;;;5029753;28;20369;-88
2023/10/30 12:12:44;;;;;;;5.40;1.30;;;14.00;99.90;;;;;;5021475;28;20029;-89
2023/10/30 12:15:09;;;;;;;2.47;0.77;;;14.00;99.90;;;;;;5018264;28;20109;-88
2023/10/30 12:17:36;;;;;;;4.28;0.80;;;14.00;99.90;;;;;;5026703;28;20033;-87
2023/10/30 12:20:03;;;;;;;3.97;1.10;;;14.10;99.90;;;;;;5021787;28;20045;-92
2023/10/30 12:22:29;;;;;;;4.70;1.00;;;14.10;99.90;;;;;;5007565;28;20034;-91
2023/10/30 12:24:56;;;;;;;5.55;1.23;;;14.20;99.90;;;;;;5010106;28;20022;-86
2023/10/30 12:27:23;;;;;;;3.15;0.73;;;14.30;99.90;;;;;;5026794;28;20474;-86
2023/10/30 12:29:55;;;;;;;4.65;0.65;;;14.30;99.90;;;;;;5027743;28;20095;-90
2023/10/30 12:32:21;;;;;;;2.15;0.80;;;14.30;99.90;;;;;;5010988;28;20028;-88
2023/10/30 12:34:47;;;;;;;3.40;0.60;;;14.40;99.90;;;;;;5023521;28;20029;-88
2023/10/30 12:37:48;;;;;;;3.15;0.70;;;14.30;99.90;;;;;;5020992;28;20014;-92
2023/10/30 12:40:13;;;;;;;2.50;0.60;;;14.30;99.90;;;;;;5021376;28;20413;-89
2023/10/30 12:42:40;;;;;;;3.05;0.50;;;14.30;99.90;;;;;;5030138;28;20023;-88